Airfield :
LOGIN :

Register | Disclaimer

   EN    FR    IT 

 










Legend :    VFR   Marginal VFR   IFR   Intensive IFR   Very Intensive IFR
Visi :
Ceiling :
>= 8 km
>= 3000ft
5 to 8 km
1000 to 3000 ft
1500m to 5 km
500 to 1000 ft
800 to 1500m
200 to 500 ft
< 800m
< 200 ft
Symbols :   Thunderstorms  Fog  Heavy snow  Heavy precipitations  Wind > 20 kt
SIGMETs :     Misc.  Thunderstorms  Icing  Turbulence  Mountain Waves  Volcanic Ashes







- Airport Elevation : 3 ft
- IATA code : LWR


EHLW - Leuuwarden Air Base

CURRENT METAR :
  • 300059Z AUTO 13004KT 090V160 4800 BR SCT015CB OVC100 17/17 Q1010 GRN

EXPIRED METARs :
  • 300055Z AUTO 11003KT 050V160 5000 BR SCT015CB OVC100 17/17 Q1009 WHT
  • 300035Z AUTO 05005KT 360V150 6000 -RA FEW002 BKN015CB OVC100 17/17 Q1009 WHT
  • 300025Z AUTO 26005KT 210V330 6000 SHRA BKN015CB SCT070 BKN084 17/17 Q1011 WHT
  • 300007Z AUTO 21007KT 170V230 3500 R05/P3000N +SHRA FEW013 BKN015CB BKN061 16/16 Q1012 YLO
  • 292356Z AUTO 21007KT 160V230 3400 R05/P3000D +TSRA SCT015CB BKN072 BKN077 16/16 Q1012 YLO
  • 292355Z AUTO 21007KT 160V230 7000 TSRA -DZ SCT015CB BKN071 OVC077 16/16 Q1012 REDZ WHT
  • 292341Z AUTO VRB02KT 6000 TSRA FEW015CB SCT050 BKN070 16/15 Q1011 WHT
  • 292325Z AUTO 17004KT 130V200 9000 TS BR FEW015CB OVC077 15/15 Q1011 BLU
  • 292310Z AUTO 07003KT 030V150 9000 BR FEW015CB BKN078 OVC087 15/14 Q1011 BLU
  • 292255Z AUTO 05004KT 7000 BR FEW015CB OVC150 14/14 Q1010 WHT
  • 292244Z AUTO 05003KT 020V110 7000 BR FEW083 OVC150 15/14 Q1011 WHT
  • 292225Z AUTO 06004KT 020V090 9000 BR BKN084 BKN090 OVC097 15/14 Q1011 BLU

TAF TAF EHLW
Valid from the 30 at 01:00 until the 30 at 13:00 UTC


300054Z 3001/3013 VRB02KT 6000 BKN015 OVC100
TEMPO 3001/3002 VRB10G20KT 4000 SHRA FEW020 SCT040CB
PROB40
TEMPO 3001/3002 VRB15G25KT 2000 SHRAGR TSRAGR SCT020 BKN040CB
BECMG 3001/3004 24004KT
BECMG 3006/3008 SCT008 BKN012
TEMPO 3006/3009 SCT005 BKN008
BECMG 3010/3013 26014KT BKN015
No reported NOTAMs for that airfield.



MET'MAP, your aeronautical weather chart ! - Copyright ORBIFLY December 2007 - Disclaimer

ORBIFLY MET'MAP TEAM :

Programming & Development : Alexandra Zaïnal
Concept & Development : Baudouin d'Aumeries
Co-Development & Prog : Marc-Olivier Méhu
Technical & hardware support : Manuel Goepfert

Contact : metmap@orbifly.com




SOURCES & CREDITS :

   NOAA